createdAt,value
2017-08-22T00:01:30.321Z,9.00
2017-08-22T00:03:57.804Z,10.23
2017-08-22T00:06:25.249Z,9.80
2017-08-22T00:08:52.746Z,9.70
2017-08-22T00:11:20.209Z,9.97
2017-08-22T00:13:47.666Z,9.80
2017-08-22T00:16:15.173Z,9.90
2017-08-22T00:18:42.626Z,10.33
2017-08-22T00:21:10.117Z,10.17
2017-08-22T00:23:37.577Z,9.90
2017-08-22T00:26:05.029Z,10.13
2017-08-22T00:28:32.593Z,10.33
2017-08-22T00:31:00.813Z,10.37
2017-08-22T00:33:28.289Z,10.60
2017-08-22T00:35:56.006Z,10.87
2017-08-22T00:38:23.468Z,11.10
2017-08-22T00:40:50.926Z,12.30
2017-08-22T00:43:18.406Z,12.40
2017-08-22T00:45:45.897Z,12.90
2017-08-22T00:48:13.364Z,13.00
2017-08-22T00:50:40.815Z,12.93
2017-08-22T00:53:08.308Z,12.23
2017-08-22T00:55:35.753Z,13.00
2017-08-22T00:58:03.224Z,12.93
2017-08-22T01:00:30.697Z,12.90
2017-08-22T01:02:58.154Z,14.43
2017-08-22T01:05:25.646Z,13.70
2017-08-22T01:07:53.101Z,15.13
2017-08-22T01:10:20.561Z,13.10
2017-08-22T01:12:48.049Z,15.20
2017-08-22T01:15:15.501Z,13.53
2017-08-22T01:17:42.977Z,12.77
2017-08-22T01:20:10.443Z,14.70
2017-08-22T01:22:37.933Z,17.83
2017-08-22T01:25:05.418Z,16.93
2017-08-22T01:27:32.882Z,19.30
2017-08-22T01:30:00.366Z,18.17
2017-08-22T01:32:27.823Z,17.60
2017-08-22T01:34:55.300Z,16.87
2017-08-22T01:37:22.790Z,18.00
2017-08-22T01:39:51.296Z,18.90
2017-08-22T01:42:18.761Z,18.10
2017-08-22T01:44:46.256Z,17.10
2017-08-22T01:47:13.722Z,17.20
2017-08-22T01:49:41.281Z,16.47
2017-08-22T01:52:08.753Z,16.97
2017-08-22T01:54:36.217Z,17.70
2017-08-22T01:57:03.710Z,17.00
2017-08-22T01:59:31.170Z,18.10
2017-08-22T02:01:58.667Z,14.73
2017-08-22T02:04:26.122Z,15.87
2017-08-22T02:06:53.622Z,14.63
2017-08-22T02:09:21.078Z,14.80
2017-08-22T02:11:48.541Z,15.97
2017-08-22T02:14:16.030Z,14.10
2017-08-22T02:16:43.494Z,13.70
2017-08-22T02:19:11.079Z,14.50
2017-08-22T02:21:38.538Z,14.13
2017-08-22T02:24:05.999Z,14.40
2017-08-22T02:26:33.569Z,14.00
2017-08-22T02:29:01.122Z,13.67
2017-08-22T02:31:28.586Z,14.20
2017-08-22T02:33:56.085Z,15.27
2017-08-22T02:36:23.556Z,16.30
2017-08-22T02:38:51.038Z,16.87
2017-08-22T02:41:18.522Z,18.30
2017-08-22T02:43:45.981Z,17.50
2017-08-22T02:46:13.475Z,16.30
2017-08-22T02:48:40.947Z,18.43
2017-08-22T02:51:08.429Z,17.00
2017-08-22T02:53:35.900Z,17.23
2017-08-22T02:56:03.389Z,17.00
2017-08-22T02:58:30.886Z,17.67
2017-08-22T03:00:59.205Z,16.90
2017-08-22T03:03:26.665Z,16.70
2017-08-22T03:05:54.562Z,18.70
2017-08-22T03:08:22.021Z,16.60
2017-08-22T03:10:49.478Z,17.50
2017-08-22T03:13:16.959Z,19.00
2017-08-22T03:15:44.434Z,17.60
2017-08-22T03:18:11.890Z,17.73
2017-08-22T03:20:39.394Z,17.30
2017-08-22T03:23:06.845Z,17.80
2017-08-22T03:25:34.306Z,15.87
2017-08-22T03:28:01.786Z,18.20
2017-08-22T03:30:29.278Z,17.50
2017-08-22T03:32:56.741Z,17.53
2017-08-22T03:35:24.204Z,17.33
2017-08-22T03:37:51.704Z,17.67
2017-08-22T03:40:19.209Z,17.23
2017-08-22T03:42:46.674Z,18.20
2017-08-22T03:45:14.152Z,17.17
2017-08-22T03:47:41.617Z,17.57
2017-08-22T03:50:09.110Z,17.80
2017-08-22T03:52:36.597Z,19.10
2017-08-22T03:55:04.054Z,18.37
2017-08-22T03:57:31.545Z,19.97
2017-08-22T03:59:59.021Z,18.30
2017-08-22T04:02:26.530Z,19.30
2017-08-22T04:04:53.990Z,18.70
2017-08-22T04:07:21.453Z,19.30
2017-08-22T04:09:49.020Z,20.00
2017-08-22T04:12:16.474Z,17.17
2017-08-22T04:14:43.967Z,18.97
2017-08-22T04:17:11.430Z,21.20
2017-08-22T04:19:38.894Z,19.17
2017-08-22T04:22:06.381Z,18.63
2017-08-22T04:24:33.845Z,21.60
2017-08-22T04:27:01.310Z,21.10
2017-08-22T04:29:28.810Z,20.93
2017-08-22T04:31:56.270Z,20.47
2017-08-22T04:34:23.726Z,21.33
2017-08-22T04:36:51.219Z,21.33
2017-08-22T04:39:18.703Z,21.97
2017-08-22T04:41:46.934Z,21.80
2017-08-22T04:44:14.421Z,21.03
2017-08-22T04:46:41.905Z,20.20
2017-08-22T04:49:09.393Z,20.47
2017-08-22T04:51:36.874Z,22.30
2017-08-22T04:54:04.329Z,21.20
2017-08-22T04:56:31.834Z,21.27
2017-08-22T04:58:59.285Z,21.70
2017-08-22T05:01:26.742Z,22.57
2017-08-22T05:03:54.238Z,25.27
2017-08-22T05:06:21.705Z,21.77
2017-08-22T05:08:49.186Z,22.00
2017-08-22T05:11:16.642Z,22.73
2017-08-22T05:13:44.517Z,21.70
2017-08-22T05:16:11.977Z,21.93
2017-08-22T05:18:39.438Z,22.27
2017-08-22T05:21:06.925Z,24.13
2017-08-22T05:23:34.381Z,23.73
2017-08-22T05:26:02.167Z,22.20
2017-08-22T05:28:29.642Z,22.00
2017-08-22T05:30:57.235Z,23.23
2017-08-22T05:33:24.743Z,22.57
2017-08-22T05:35:52.337Z,23.00
2017-08-22T05:38:19.841Z,22.60
2017-08-22T05:40:47.313Z,21.70
2017-08-22T05:43:14.793Z,22.97
2017-08-22T05:45:42.265Z,23.93
2017-08-22T05:48:09.761Z,22.80
2017-08-22T05:50:37.214Z,34.77
2017-08-22T05:53:04.686Z,21.80
2017-08-22T05:55:32.183Z,21.80
2017-08-22T05:57:59.649Z,22.30
2017-08-22T06:00:27.162Z,21.40
2017-08-22T06:02:54.637Z,22.10
2017-08-22T06:05:22.215Z,20.97
2017-08-22T06:07:49.666Z,22.10
2017-08-22T06:10:17.133Z,20.87
2017-08-22T06:12:44.625Z,21.17
2017-08-22T06:15:12.086Z,22.33
2017-08-22T06:17:39.566Z,21.30
2017-08-22T06:20:07.022Z,20.03
2017-08-22T06:22:34.489Z,20.60
2017-08-22T06:25:01.978Z,19.07
2017-08-22T06:27:29.441Z,19.53
2017-08-22T06:29:56.917Z,18.60
2017-08-22T06:32:24.401Z,18.17
2017-08-22T06:34:51.869Z,17.33
2017-08-22T06:37:19.349Z,16.40
2017-08-22T06:39:46.810Z,14.73
2017-08-22T06:42:14.294Z,16.30
2017-08-22T06:44:41.833Z,16.30
2017-08-22T06:47:09.316Z,16.33
2017-08-22T06:49:36.781Z,16.90
2017-08-22T06:52:04.261Z,15.20
2017-08-22T06:54:31.718Z,15.43
2017-08-22T06:56:59.244Z,15.83
2017-08-22T06:59:26.762Z,15.90
2017-08-22T07:01:54.985Z,16.10
2017-08-22T07:04:22.522Z,15.43
2017-08-22T07:06:49.992Z,16.30
2017-08-22T07:09:17.452Z,17.37
2017-08-22T07:11:44.936Z,18.03
2017-08-22T07:14:12.407Z,17.30
2017-08-22T07:16:39.885Z,17.83
2017-08-22T07:19:07.346Z,17.93
2017-08-22T07:21:34.840Z,17.40
2017-08-22T07:24:02.298Z,17.00
2017-08-22T07:26:29.755Z,18.13
2017-08-22T07:28:58.354Z,18.20
2017-08-22T07:31:25.805Z,18.50
2017-08-22T07:33:53.270Z,18.93
2017-08-22T07:36:20.758Z,17.80
2017-08-22T07:38:48.225Z,17.80
2017-08-22T07:41:15.691Z,19.40
2017-08-22T07:43:43.191Z,18.50
2017-08-22T07:46:10.665Z,17.53
2017-08-22T07:48:38.186Z,18.80
2017-08-22T07:51:05.674Z,19.03
2017-08-22T07:53:33.139Z,19.43
2017-08-22T07:56:00.590Z,19.30
2017-08-22T07:58:28.069Z,19.90
2017-08-22T08:00:55.541Z,20.47
2017-08-22T08:03:23.058Z,19.90
2017-08-22T08:05:50.509Z,21.00
2017-08-22T08:08:18.018Z,20.13
2017-08-22T08:10:45.478Z,20.07
2017-08-22T08:13:12.930Z,19.97
2017-08-22T08:15:40.407Z,20.50
2017-08-22T08:18:07.870Z,19.97
2017-08-22T08:20:35.345Z,20.57
2017-08-22T08:23:02.825Z,20.97
2017-08-22T08:25:30.285Z,21.50
2017-08-22T08:27:57.756Z,21.23
2017-08-22T08:30:25.233Z,20.60
2017-08-22T08:32:52.695Z,20.50
2017-08-22T08:35:20.142Z,20.10
2017-08-22T08:37:47.642Z,20.70
2017-08-22T08:40:15.100Z,19.80
2017-08-22T08:42:42.562Z,19.20
2017-08-22T08:45:10.053Z,19.10
2017-08-22T08:47:37.514Z,18.00
2017-08-22T08:50:05.022Z,19.63
2017-08-22T08:52:32.506Z,20.37
2017-08-22T08:54:59.989Z,18.53
2017-08-22T08:57:27.449Z,20.20
2017-08-22T08:59:54.938Z,19.17
2017-08-22T09:02:22.397Z,18.53
2017-08-22T09:04:49.858Z,19.67
2017-08-22T09:07:17.362Z,20.27
2017-08-22T09:09:44.833Z,20.73
2017-08-22T09:12:12.293Z,20.93
2017-08-22T09:14:39.778Z,19.93
2017-08-22T09:17:07.279Z,19.47
2017-08-22T09:19:34.742Z,20.23
2017-08-22T09:22:02.206Z,18.37
2017-08-22T09:24:29.698Z,16.57
2017-08-22T09:26:57.169Z,19.80
2017-08-22T09:29:24.639Z,19.37
2017-08-22T09:31:52.143Z,19.80
2017-08-22T09:34:19.597Z,19.37
2017-08-22T09:36:47.091Z,18.00
2017-08-22T09:39:14.622Z,17.93
2017-08-22T09:41:42.841Z,19.13
2017-08-22T09:44:10.301Z,19.30
2017-08-22T09:46:38.322Z,19.62
2017-08-22T09:49:05.866Z,20.27
2017-08-22T09:51:33.344Z,18.57
2017-08-22T09:54:00.830Z,16.10
2017-08-22T09:56:28.306Z,14.97
2017-08-22T09:58:55.794Z,15.83
2017-08-22T10:01:23.257Z,16.27
2017-08-22T10:03:50.753Z,14.63
2017-08-22T10:06:18.214Z,17.53
2017-08-22T10:08:45.672Z,16.20
2017-08-22T10:11:13.157Z,15.17
2017-08-22T10:13:40.626Z,14.17
2017-08-22T10:16:08.105Z,11.97
2017-08-22T10:18:35.574Z,18.03
2017-08-22T10:21:03.124Z,16.27
2017-08-22T10:23:31.418Z,15.47
2017-08-22T10:25:58.970Z,14.90
2017-08-22T10:28:26.426Z,14.07
2017-08-22T10:30:53.914Z,12.07
2017-08-22T10:33:21.418Z,16.33
2017-08-22T10:35:48.877Z,12.80
2017-08-22T10:38:16.332Z,14.13
2017-08-22T10:40:43.818Z,17.40
2017-08-22T10:43:11.313Z,13.47
2017-08-22T10:45:38.843Z,12.50
2017-08-22T10:50:40.206Z,11.73
2017-08-22T10:53:07.714Z,10.17
2017-08-22T10:55:35.173Z,8.20
2017-08-22T10:58:02.634Z,12.00
2017-08-22T11:00:30.125Z,10.07
2017-08-22T11:02:57.590Z,10.53
2017-08-22T11:05:25.050Z,10.37
2017-08-22T11:07:52.537Z,10.33
2017-08-22T11:10:20.010Z,9.80
2017-08-22T11:12:47.469Z,8.63
2017-08-22T11:15:14.965Z,10.80
2017-08-22T11:17:42.433Z,11.00
2017-08-22T11:20:09.897Z,8.97
2017-08-22T11:22:38.165Z,8.00
2017-08-22T11:25:05.618Z,8.30
2017-08-22T11:27:33.850Z,10.30
2017-08-22T11:30:01.334Z,8.30
2017-08-22T11:32:28.800Z,7.50
2017-08-22T11:34:56.312Z,7.60
2017-08-22T11:37:23.849Z,7.50
2017-08-22T11:39:51.297Z,7.10
2017-08-22T11:42:18.757Z,7.63
2017-08-22T11:44:46.246Z,8.60
2017-08-22T11:47:13.726Z,9.40
2017-08-22T11:49:41.198Z,11.30
2017-08-22T11:52:08.689Z,10.83
2017-08-22T11:54:36.145Z,9.97
2017-08-22T11:57:03.602Z,8.00
2017-08-22T11:59:31.077Z,8.00
2017-08-22T12:01:58.541Z,7.83
2017-08-22T12:04:26.022Z,9.03
2017-08-22T12:06:53.479Z,7.87
2017-08-22T12:09:21.016Z,10.03
2017-08-22T12:11:48.474Z,10.37
2017-08-22T12:14:15.967Z,8.93
2017-08-22T12:16:43.425Z,8.57
2017-08-22T12:19:10.910Z,7.00
2017-08-22T12:21:39.325Z,10.60
2017-08-22T12:24:06.790Z,9.80
2017-08-22T12:26:34.247Z,7.07
2017-08-22T12:29:01.733Z,7.43
2017-08-22T12:31:29.219Z,6.90
2017-08-22T12:33:56.713Z,7.90
2017-08-22T12:36:24.169Z,7.30
2017-08-22T12:38:51.753Z,10.20
2017-08-22T12:41:19.266Z,8.60
2017-08-22T12:43:46.718Z,9.03
2017-08-22T12:46:14.211Z,9.80
2017-08-22T12:48:41.692Z,8.20
2017-08-22T12:51:09.152Z,8.93
2017-08-22T12:53:36.647Z,10.17
2017-08-22T12:56:04.159Z,9.07
2017-08-22T12:58:31.633Z,8.13
2017-08-22T13:00:59.117Z,7.70
2017-08-22T13:03:26.600Z,8.87
2017-08-22T13:05:54.054Z,9.80
2017-08-22T13:08:21.658Z,11.23
2017-08-22T13:10:49.105Z,8.53
2017-08-22T13:13:16.568Z,10.07
2017-08-22T13:15:44.050Z,12.20
2017-08-22T13:18:11.506Z,8.67
2017-08-22T13:20:38.982Z,7.00
2017-08-22T13:23:06.443Z,7.07
2017-08-22T13:25:33.899Z,8.57
2017-08-22T13:28:01.377Z,6.80
2017-08-22T13:30:28.865Z,7.10
2017-08-22T13:32:56.349Z,7.80
2017-08-22T13:35:23.829Z,8.93
2017-08-22T13:37:51.322Z,8.03
2017-08-22T13:40:18.801Z,9.10
2017-08-22T13:42:46.262Z,9.80
2017-08-22T13:45:13.737Z,5.90
2017-08-22T13:47:41.198Z,7.13
2017-08-22T13:50:08.691Z,8.67
2017-08-22T13:52:36.166Z,6.27
2017-08-22T13:55:03.633Z,7.07
2017-08-22T13:57:31.152Z,6.17
2017-08-22T13:59:58.645Z,8.70
2017-08-22T14:02:26.098Z,5.50
2017-08-22T14:04:53.574Z,5.70
2017-08-22T14:07:21.050Z,5.33
2017-08-22T14:09:48.539Z,6.30
2017-08-22T14:12:15.997Z,5.80
2017-08-22T14:14:43.454Z,5.73
2017-08-22T14:17:10.945Z,5.00
2017-08-22T14:19:39.169Z,5.23
2017-08-22T14:22:06.621Z,4.13
2017-08-22T14:24:34.088Z,3.47
2017-08-22T14:27:01.580Z,3.40
2017-08-22T14:29:29.042Z,3.30
2017-08-22T14:31:56.521Z,4.37
2017-08-22T14:34:24.001Z,3.70
2017-08-22T14:36:51.454Z,4.57
2017-08-22T14:39:18.905Z,3.23
2017-08-22T14:41:46.378Z,4.27
2017-08-22T14:44:13.914Z,4.00
2017-08-22T14:46:41.390Z,3.50
2017-08-22T14:49:08.840Z,3.97
2017-08-22T14:51:37.164Z,4.10
2017-08-22T14:54:04.617Z,7.80
2017-08-22T14:56:32.097Z,3.30
2017-08-22T14:58:59.549Z,3.83
2017-08-22T15:01:27.002Z,3.43
2017-08-22T15:03:54.485Z,2.90
2017-08-22T15:06:21.938Z,3.40
2017-08-22T15:08:49.430Z,3.30
2017-08-22T15:11:16.938Z,3.23
2017-08-22T15:13:44.432Z,3.73
2017-08-22T15:16:11.958Z,3.20
2017-08-22T15:18:39.455Z,3.33
2017-08-22T15:21:06.984Z,3.13
2017-08-22T15:23:34.465Z,4.20
2017-08-22T15:26:01.914Z,4.03
2017-08-22T15:28:29.411Z,3.80
2017-08-22T15:30:56.867Z,4.27
2017-08-22T15:33:24.371Z,3.40
2017-08-22T15:35:51.838Z,3.77
2017-08-22T15:38:19.306Z,3.50
2017-08-22T15:40:46.816Z,3.83
2017-08-22T15:43:14.315Z,4.30
2017-08-22T15:45:41.863Z,4.53
2017-08-22T15:48:09.359Z,3.50
2017-08-22T15:50:36.893Z,3.60
2017-08-22T15:53:04.485Z,4.07
2017-08-22T15:55:31.979Z,4.00
2017-08-22T15:57:59.437Z,3.67
2017-08-22T16:00:26.979Z,3.67
2017-08-22T16:02:54.484Z,4.70
2017-08-22T16:05:21.929Z,4.90
2017-08-22T16:07:49.405Z,5.03
2017-08-22T16:10:16.862Z,5.73
2017-08-22T16:12:44.371Z,6.13
2017-08-22T16:15:11.881Z,4.90
2017-08-22T16:17:39.382Z,5.10
2017-08-22T16:20:06.974Z,5.53
2017-08-22T16:22:34.483Z,6.70
2017-08-22T16:25:01.987Z,6.00
2017-08-22T16:27:29.461Z,5.40
2017-08-22T16:29:57.254Z,6.07
2017-08-22T16:35:13.670Z,6.93
2017-08-22T16:37:41.511Z,6.90
2017-08-22T16:40:20.693Z,6.50
2017-08-22T16:42:48.844Z,6.13
2017-08-22T16:45:21.092Z,6.20
2017-08-22T16:47:48.718Z,7.10
2017-08-22T16:50:16.719Z,6.90
2017-08-22T16:52:44.845Z,9.10
2017-08-22T16:55:27.585Z,6.17
2017-08-22T16:57:55.158Z,6.63
2017-08-22T17:23:59.051Z,5.40
2017-08-22T17:26:27.535Z,5.73
2017-08-22T17:29:35.487Z,5.33
2017-08-22T17:32:23.799Z,6.20
2017-08-22T17:48:31.770Z,5.97
2017-08-22T17:50:59.278Z,6.43
2017-08-22T17:53:26.784Z,6.33
2017-08-22T17:55:54.290Z,5.83
2017-08-22T17:58:21.938Z,5.43
2017-08-22T18:00:49.500Z,7.07
2017-08-22T18:14:59.647Z,7.87
2017-08-22T18:20:20.051Z,8.13
2017-08-22T18:22:47.610Z,7.80
2017-08-22T18:25:15.171Z,6.60
2017-08-22T18:27:42.686Z,7.60
2017-08-22T18:30:10.520Z,7.27
2017-08-22T18:32:38.728Z,8.13
2017-08-22T18:35:06.559Z,7.10
2017-08-22T18:37:34.120Z,7.37
2017-08-22T18:40:02.303Z,7.70
2017-08-22T18:42:30.077Z,7.50
2017-08-22T18:44:57.623Z,8.53
2017-08-22T18:47:25.338Z,8.37
2017-08-22T18:49:53.160Z,7.40
2017-08-22T18:52:20.681Z,7.83
2017-08-22T18:54:48.145Z,8.00
2017-08-22T18:57:15.923Z,9.40
2017-08-22T18:59:43.799Z,8.57
2017-08-22T19:02:11.696Z,8.67
2017-08-22T19:04:39.220Z,9.50
2017-08-22T19:07:06.967Z,8.60
2017-08-22T19:09:34.794Z,9.00
2017-08-22T19:12:03.206Z,9.70
2017-08-22T19:14:31.033Z,9.43
2017-08-22T19:16:59.170Z,10.93
2017-08-22T19:19:26.912Z,9.77
2017-08-22T19:21:54.676Z,10.40
2017-08-22T19:24:23.954Z,10.17
2017-08-22T19:26:53.360Z,9.23
2017-08-22T19:29:21.846Z,9.80
2017-08-22T19:31:49.460Z,11.00
2017-08-22T19:34:16.921Z,10.20
2017-08-22T19:36:45.343Z,10.50
2017-08-22T19:39:13.960Z,11.00
2017-08-22T19:41:44.087Z,11.88
2017-08-22T19:44:11.881Z,10.37
2017-08-22T19:46:39.389Z,10.53
2017-08-22T19:49:06.906Z,10.40
2017-08-22T19:51:34.411Z,10.67
2017-08-22T19:54:02.003Z,11.30
2017-08-22T19:56:29.474Z,11.37
2017-08-22T19:58:56.992Z,11.60
2017-08-22T20:01:24.462Z,11.60
2017-08-22T20:03:51.975Z,11.37
2017-08-22T20:06:19.440Z,11.63
2017-08-22T20:08:46.947Z,11.90
2017-08-22T20:11:15.193Z,12.07
2017-08-22T20:13:42.662Z,11.47
2017-08-22T20:16:10.142Z,11.27
2017-08-22T20:18:38.365Z,10.23
2017-08-22T20:21:05.865Z,11.60
2017-08-22T20:23:33.329Z,13.10
2017-08-22T20:26:00.792Z,10.93
2017-08-22T20:28:28.273Z,11.83
2017-08-22T20:30:55.774Z,11.30
2017-08-22T20:33:23.239Z,12.30
2017-08-22T20:35:50.706Z,11.60
2017-08-22T20:38:18.202Z,12.00
2017-08-22T20:40:45.686Z,12.17
2017-08-22T20:43:13.179Z,11.30
2017-08-22T20:45:40.673Z,12.00
2017-08-22T20:48:08.135Z,11.70
2017-08-22T20:50:35.609Z,12.30
2017-08-22T20:53:03.097Z,11.80
2017-08-22T20:55:30.557Z,12.23
2017-08-22T20:57:58.022Z,11.33
2017-08-22T21:00:25.503Z,11.60
2017-08-22T21:02:52.952Z,11.93
2017-08-22T21:05:20.430Z,11.20
2017-08-22T21:07:47.949Z,10.80
2017-08-22T21:10:15.414Z,11.10
2017-08-22T21:12:42.877Z,11.03
2017-08-22T21:15:10.366Z,10.33
2017-08-22T21:17:37.835Z,12.20
2017-08-22T21:20:05.322Z,10.60
2017-08-22T21:22:32.790Z,11.40
2017-08-22T21:25:00.282Z,11.50
2017-08-22T21:27:27.758Z,12.00
2017-08-22T21:29:55.326Z,11.10
2017-08-22T21:32:22.806Z,10.93
2017-08-22T21:34:50.290Z,11.60
2017-08-22T21:37:17.753Z,11.03
2017-08-22T21:39:45.243Z,11.37
2017-08-22T21:42:12.739Z,10.20
2017-08-22T21:44:40.197Z,11.90
2017-08-22T21:47:07.677Z,9.40
2017-08-22T21:49:35.144Z,10.10
2017-08-22T21:52:02.594Z,9.90
2017-08-22T21:54:30.081Z,11.30
2017-08-22T21:56:57.542Z,10.17
2017-08-22T21:59:25.003Z,9.70
2017-08-22T22:01:52.478Z,9.13
2017-08-22T22:04:20.753Z,10.30
2017-08-22T22:06:48.254Z,9.90
2017-08-22T22:09:15.707Z,9.60
2017-08-22T22:11:43.171Z,9.00
2017-08-22T22:14:10.654Z,9.70
2017-08-22T22:16:38.113Z,8.40
2017-08-22T22:19:05.592Z,8.93
2017-08-22T22:21:33.044Z,8.87
2017-08-22T22:24:00.534Z,10.10
2017-08-22T22:26:28.018Z,7.10
2017-08-22T22:28:56.566Z,10.20
2017-08-22T22:31:24.086Z,8.80
2017-08-22T22:33:51.545Z,9.67
2017-08-22T22:36:19.006Z,9.37
2017-08-22T22:38:46.485Z,9.30
2017-08-22T22:41:13.973Z,9.83
2017-08-22T22:43:41.453Z,8.60
2017-08-22T22:46:08.918Z,9.83
2017-08-22T22:48:36.399Z,7.57
2017-08-22T22:51:03.870Z,8.80
2017-08-22T22:53:31.342Z,9.57
2017-08-22T22:55:59.618Z,9.50
2017-08-22T22:58:27.090Z,8.77
2017-08-22T23:00:54.550Z,9.80
2017-08-22T23:03:22.026Z,8.80
2017-08-22T23:05:49.525Z,8.63
2017-08-22T23:08:17.026Z,9.77
2017-08-22T23:10:44.485Z,9.77
2017-08-22T23:13:11.958Z,9.37
2017-08-22T23:15:39.455Z,8.37
2017-08-22T23:18:06.910Z,9.20
2017-08-22T23:20:34.375Z,8.57
2017-08-22T23:23:01.866Z,9.17
2017-08-22T23:25:29.325Z,7.70
2017-08-22T23:27:56.807Z,8.47
2017-08-22T23:30:24.293Z,8.67
2017-08-22T23:32:51.782Z,8.70
2017-08-22T23:35:19.239Z,7.70
2017-08-22T23:37:46.710Z,9.70
2017-08-22T23:40:14.198Z,8.77
2017-08-22T23:42:47.360Z,8.03
2017-08-22T23:45:15.615Z,8.63
2017-08-22T23:47:43.065Z,8.00
2017-08-22T23:50:10.582Z,8.03
2017-08-22T23:52:38.034Z,8.13
2017-08-22T23:55:05.494Z,9.07
2017-08-22T23:57:33.003Z,7.67
